Time;durP1;ratioP1;P1;durP2;ratioP2;P2;SDS_P1;SDS_P2;PMS_P1;PMS_P2;Temp;Humidity;BMP_temperature;BMP_pressure;BME280_temperature;BME280_humidity;BME280_pressure;Samples;Min_cycle;Max_cycle;Signal;HPM_P1;HPM_P2
2021/08/20 00:02:24;;;;;;;9.18;4.97;;;;;;;17.07;100.00;100705.72;5051890;28;20215;-74
2021/08/20 00:04:49;;;;;;;7.32;5.30;;;;;;;17.17;100.00;100697.22;5018352;28;20180;-73
2021/08/20 00:07:17;;;;;;;8.35;5.50;;;;;;;17.21;100.00;100695.47;5017628;28;20219;-74
2021/08/20 00:09:43;;;;;;;8.82;4.88;;;;;;;16.99;100.00;100700.94;5017674;28;20179;-74
2021/08/20 00:12:09;;;;;;;9.05;5.38;;;;;;;16.95;100.00;100703.50;5017580;28;20285;-73
2021/08/20 00:14:38;;;;;;;6.45;4.90;;;;;;;16.89;100.00;100692.97;5030925;28;20212;-72
2021/08/20 00:17:06;;;;;;;7.13;4.93;;;;;;;17.00;100.00;100694.34;5060368;28;20237;-74
2021/08/20 00:19:31;;;;;;;7.10;4.80;;;;;;;16.91;100.00;100698.97;5038211;28;20294;-71
2021/08/20 00:21:59;;;;;;;5.85;5.25;;;;;;;16.88;100.00;100702.31;5033668;28;20223;-72
2021/08/20 00:24:27;;;;;;;10.20;5.28;;;;;;;16.82;100.00;100703.59;5014693;28;20266;-72
2021/08/20 00:26:55;;;;;;;8.45;5.40;;;;;;;16.86;100.00;100701.84;5014721;28;20216;-72
2021/08/20 00:29:27;;;;;;;9.38;5.22;;;;;;;16.91;100.00;100701.72;5017793;28;20192;-72
2021/08/20 00:31:58;;;;;;;8.20;5.45;;;;;;;16.82;100.00;100695.34;5050895;28;20228;-71
2021/08/20 00:34:28;;;;;;;8.38;5.72;;;;;;;16.83;100.00;100693.41;5051067;28;20203;-71
2021/08/20 00:36:53;;;;;;;9.27;5.45;;;;;;;16.90;100.00;100697.34;5033875;28;20227;-73
2021/08/20 00:39:19;;;;;;;7.57;5.25;;;;;;;16.76;100.00;100696.59;5030115;28;20176;-73
2021/08/20 00:41:47;;;;;;;8.48;5.38;;;;;;;16.92;100.00;100692.34;5014311;28;20226;-72
2021/08/20 00:44:13;;;;;;;10.02;5.82;;;;;;;16.85;100.00;100692.00;5017491;28;20211;-74
2021/08/20 00:46:41;;;;;;;8.05;5.90;;;;;;;16.84;100.00;100695.84;5016731;28;20220;-73
2021/08/20 00:49:10;;;;;;;7.93;5.55;;;;;;;16.74;100.00;100695.28;5065520;28;20188;-73
2021/08/20 00:51:38;;;;;;;10.93;5.45;;;;;;;16.64;100.00;100696.34;5017024;28;20362;-73
2021/08/20 00:54:09;;;;;;;9.35;5.57;;;;;;;16.60;100.00;100697.28;5013705;28;20196;-73
2021/08/20 00:56:44;;;;;;;9.48;5.43;;;;;;;16.75;100.00;100699.66;5014064;28;20243;-73
2021/08/20 00:59:13;;;;;;;9.68;5.80;;;;;;;16.60;100.00;100692.59;5017351;28;20183;-72
2021/08/20 01:01:40;;;;;;;10.20;5.55;;;;;;;16.62;100.00;100698.56;5016868;28;20215;-73
2021/08/20 01:04:08;;;;;;;8.98;5.53;;;;;;;16.64;100.00;100695.53;5013911;28;20282;-73
2021/08/20 01:06:37;;;;;;;9.57;6.22;;;;;;;16.70;100.00;100692.38;5029744;28;20228;-73
2021/08/20 01:09:04;;;;;;;9.75;5.47;;;;;;;16.73;100.00;100688.19;5017258;28;20259;-73
2021/08/20 01:11:34;;;;;;;8.63;5.60;;;;;;;16.66;100.00;100693.28;5016546;28;20984;-73
2021/08/20 01:14:00;;;;;;;12.90;6.03;;;;;;;16.63;100.00;100696.66;5034179;28;20211;-73
2021/08/20 01:16:28;;;;;;;11.10;6.35;;;;;;;16.57;100.00;100687.75;5065995;28;20589;-73
2021/08/20 01:18:56;;;;;;;10.52;5.50;;;;;;;16.59;100.00;100690.16;5033190;28;20179;-73
2021/08/20 01:21:25;;;;;;;10.38;6.15;;;;;;;16.49;100.00;100681.38;5033015;28;20238;-72
2021/08/20 01:23:53;;;;;;;9.23;5.60;;;;;;;16.43;100.00;100682.63;5032907;28;20223;-73
2021/08/20 01:26:19;;;;;;;11.48;6.45;;;;;;;16.54;100.00;100683.97;5016521;28;20212;-74
2021/08/20 01:28:45;;;;;;;7.97;5.65;;;;;;;16.51;100.00;100682.69;5032797;28;20180;-73
2021/08/20 01:31:16;;;;;;;10.23;5.72;;;;;;;16.46;100.00;100681.97;5032512;28;20227;-72
2021/08/20 01:33:47;;;;;;;9.13;6.03;;;;;;;16.35;100.00;100675.91;5017988;28;20199;-72
2021/08/20 01:36:13;;;;;;;8.07;5.38;;;;;;;16.38;100.00;100680.78;5013497;28;20255;-73
2021/08/20 01:38:53;;;;;;;9.40;5.13;;;;;;;16.31;100.00;100674.91;5045876;28;20756;-73
2021/08/20 01:41:25;;;;;;;9.25;5.68;;;;;;;16.33;100.00;100677.34;5017215;28;20689;-72
2021/08/20 01:43:51;;;;;;;8.80;5.70;;;;;;;16.24;100.00;100679.19;5017022;28;20282;-71
2021/08/20 01:46:17;;;;;;;7.95;5.68;;;;;;;16.43;100.00;100671.66;5012795;28;20315;-71
2021/08/20 01:48:51;;;;;;;11.15;6.32;;;;;;;16.45;100.00;100680.38;5013105;28;20180;-72
2021/08/20 01:51:22;;;;;;;10.40;6.18;;;;;;;16.44;100.00;100674.06;5030620;28;20247;-71
2021/08/20 01:53:49;;;;;;;11.70;6.13;;;;;;;16.37;100.00;100670.13;5066181;28;20261;-72
2021/08/20 01:56:22;;;;;;;10.15;5.82;;;;;;;16.39;100.00;100662.41;5065954;28;20223;-72
2021/08/20 01:58:48;;;;;;;10.50;5.80;;;;;;;16.40;100.00;100669.53;5018742;28;20190;-71
2021/08/20 02:01:14;;;;;;;0.98;0.90;;;;;;;16.30;100.00;100673.31;5050931;28;20274;-71
2021/08/20 02:03:44;;;;;;;0.22;0.22;;;;;;;16.30;100.00;100665.09;5001726;28;20200;-72
2021/08/20 02:06:14;;;;;;;0.85;0.75;;;;;;;16.27;100.00;100659.41;5021753;28;20247;-72
2021/08/20 02:08:46;;;;;;;0.32;0.32;;;;;;;16.31;100.00;100663.16;5069222;28;20649;-72
2021/08/20 02:11:14;;;;;;;0.45;0.45;;;;;;;16.22;100.00;100659.50;5036716;28;20240;-71
2021/08/20 02:13:46;;;;;;;0.00;0.00;;;;;;;16.37;100.00;100667.38;5021079;28;20591;-72
2021/08/20 02:16:13;;;;;;;0.20;0.20;;;;;;;16.40;100.00;100658.56;5036631;28;20223;-71
2021/08/20 02:18:39;;;;;;;0.00;0.00;;;;;;;16.14;100.00;100673.13;5020407;28;20184;-71
2021/08/20 02:21:11;;;;;;;0.43;0.40;;;;;;;16.10;100.00;100667.44;5033075;28;20801;-72
2021/08/20 02:23:40;;;;;;;0.03;0.03;;;;;;;16.11;100.00;100666.31;5001218;28;20655;-72
2021/08/20 02:26:08;;;;;;;0.15;0.15;;;;;;;16.16;100.00;100666.22;5036908;28;20220;-72
2021/08/20 02:28:39;;;;;;;0.00;0.00;;;;;;;16.20;100.00;100662.56;5019785;28;20690;-72
2021/08/20 02:31:04;;;;;;;0.00;0.00;;;;;;;15.98;100.00;100663.59;5036090;28;20776;-72
2021/08/20 02:33:34;;;;;;;0.43;0.40;;;;;;;15.99;100.00;100668.78;5020019;28;20207;-71
2021/08/20 02:36:06;;;;;;;0.13;0.13;;;;;;;16.00;100.00;100667.66;5052543;28;20232;-71
2021/08/20 02:38:32;;;;;;;2.08;0.45;;;;;;;15.98;100.00;100658.94;5021080;28;20183;-71
2021/08/20 02:41:02;;;;;;;0.22;0.22;;;;;;;15.96;100.00;100666.66;5049074;28;20701;-71
2021/08/20 02:43:33;;;;;;;0.30;0.30;;;;;;;16.03;100.00;100672.53;5000148;28;20277;-72
2021/08/20 02:45:59;;;;;;;0.10;0.10;;;;;;;15.99;100.00;100668.78;5036002;28;20243;-71
2021/08/20 02:48:27;;;;;;;0.10;0.10;;;;;;;16.03;100.00;100667.03;5036177;28;20179;-71
2021/08/20 02:50:54;;;;;;;0.13;0.13;;;;;;;16.07;100.00;100661.75;5031912;28;20227;-71
2021/08/20 02:53:24;;;;;;;0.70;0.45;;;;;;;16.03;100.00;100658.81;5016602;28;20215;-71
2021/08/20 02:55:49;;;;;;;0.00;0.00;;;;;;;16.11;100.00;100655.34;5035212;28;20227;-71
2021/08/20 02:58:20;;;;;;;0.10;0.10;;;;;;;16.01;100.00;100652.84;5051539;28;20178;-71
2021/08/20 03:00:56;;;;;;;0.10;0.05;;;;;;;16.08;100.00;100647.75;5035682;28;20700;-71
2021/08/20 03:03:23;;;;;;;0.03;0.03;;;;;;;16.10;100.00;100640.03;5003386;28;20823;-71
2021/08/20 03:05:49;;;;;;;0.20;0.20;;;;;;;16.05;100.00;100642.09;5031828;28;20223;-71
2021/08/20 03:08:18;;;;;;;0.28;0.10;;;;;;;16.12;100.00;100648.75;5000378;28;20169;-71
2021/08/20 03:10:44;;;;;;;0.15;0.15;;;;;;;16.15;100.00;100656.34;5023094;28;20274;-70
2021/08/20 03:13:09;;;;;;;0.10;0.10;;;;;;;16.10;100.00;100656.47;5041705;28;20293;-71
2021/08/20 03:15:37;;;;;;;0.00;0.00;;;;;;;16.10;100.00;100639.22;5040324;28;20219;-71
2021/08/20 03:18:02;;;;;;;0.00;0.00;;;;;;;16.07;100.00;100646.13;5020057;28;20224;-71
2021/08/20 03:20:31;;;;;;;0.00;0.00;;;;;;;15.98;100.00;100647.16;5019807;28;20660;-71
2021/08/20 03:23:00;;;;;;;0.00;0.00;;;;;;;16.11;100.00;100646.31;5049200;28;20577;-71
2021/08/20 03:25:32;;;;;;;1.02;0.10;;;;;;;16.03;100.00;100642.38;5016037;28;20738;-71
2021/08/20 03:28:04;;;;;;;0.00;0.00;;;;;;;16.04;100.00;100652.22;5034264;28;20180;-71
2021/08/20 03:30:43;;;;;;;0.00;0.00;;;;;;;16.09;100.00;100649.38;5021245;28;20257;-72
2021/08/20 03:33:09;;;;;;;0.10;0.10;;;;;;;16.08;100.00;100647.75;5032397;28;20267;-71
2021/08/20 03:35:41;;;;;;;0.10;0.10;;;;;;;16.14;100.00;100649.25;5031346;28;20558;-72
2021/08/20 03:38:07;;;;;;;0.00;0.00;;;;;;;16.17;100.00;100656.84;5019072;28;20194;-72
2021/08/20 03:40:34;;;;;;;0.22;0.22;;;;;;;16.21;100.00;100657.91;5018862;28;20215;-71
2021/08/20 03:43:03;;;;;;;0.00;0.00;;;;;;;16.29;100.00;100655.22;5036555;28;20231;-72
2021/08/20 03:45:44;;;;;;;0.10;0.10;;;;;;;16.22;100.00;100652.09;5071130;28;20760;-71
2021/08/20 03:48:25;;;;;;;0.00;0.00;;;;;;;16.28;100.00;100656.38;5022589;28;20854;-71
2021/08/20 03:50:51;;;;;;;0.20;0.20;;;;;;;16.30;100.00;100667.00;5018240;28;20226;-71
2021/08/20 03:53:16;;;;;;;0.30;0.30;;;;;;;16.35;100.00;100659.47;5019766;28;20191;-71
2021/08/20 03:55:45;;;;;;;1.20;0.65;;;;;;;16.38;100.00;100664.34;5020954;28;20219;-72
2021/08/20 03:58:29;;;;;;;0.20;0.20;;;;;;;16.37;100.00;100665.47;5037235;28;20290;-70
2021/08/20 04:01:00;;;;;;;0.25;0.25;;;;;;;16.38;100.00;100658.84;5037070;28;20239;-71
2021/08/20 04:03:28;;;;;;;0.20;0.20;;;;;;;16.33;100.00;100653.47;5023056;28;20237;-71
2021/08/20 04:05:54;;;;;;;1.42;0.55;;;;;;;16.47;100.00;100656.19;5052794;28;20215;-71
2021/08/20 04:08:25;;;;;;;0.73;0.73;;;;;;;16.51;100.00;100659.94;5015019;28;20234;-71
2021/08/20 04:11:10;;;;;;;0.20;0.20;;;;;;;16.44;100.00;100659.56;5031049;28;20231;-71
2021/08/20 04:13:43;;;;;;;0.00;0.00;;;;;;;16.49;100.00;100659.44;5036891;28;20211;-71
2021/08/20 04:16:08;;;;;;;0.20;0.20;;;;;;;16.51;100.00;100658.00;5067126;28;20723;-71
2021/08/20 04:18:40;;;;;;;0.30;0.30;;;;;;;16.44;100.00;100663.09;5030861;28;20168;-72
2021/08/20 04:21:06;;;;;;;0.57;0.57;;;;;;;16.57;100.00;100662.22;5014934;28;20260;-71
2021/08/20 04:23:32;;;;;;;0.50;0.50;;;;;;;16.42;100.00;100665.34;5012789;28;20207;-72
2021/08/20 04:26:04;;;;;;;0.93;0.75;;;;;;;16.48;100.00;100666.03;5018616;28;20212;-71
2021/08/20 04:28:51;;;;;;;0.47;0.47;;;;;;;16.38;100.00;100663.53;5023047;28;20558;-71
2021/08/20 04:31:42;;;;;;;0.70;0.47;;;;;;;16.45;100.00;100664.72;5024040;28;20227;-71
2021/08/20 04:34:38;;;;;;;1.65;1.23;;;;;;;16.47;100.00;100670.72;5022673;28;20278;-71
2021/08/20 04:37:29;;;;;;;0.22;0.22;;;;;;;16.47;100.00;100669.91;5050127;28;20242;-72
2021/08/20 04:40:32;;;;;;;0.55;0.55;;;;;;;16.38;100.00;100663.53;5019194;28;20739;-72
2021/08/20 04:43:15;;;;;;;0.55;0.55;;;;;;;16.36;100.00;100665.78;5017025;28;20227;-72
2021/08/20 04:46:03;;;;;;;2.38;0.50;;;;;;;16.46;100.00;100666.34;5013795;28;20713;-72
2021/08/20 04:48:47;;;;;;;1.80;1.70;;;;;;;16.48;100.00;100668.78;5030623;28;20276;-72
2021/08/20 04:51:34;;;;;;;0.80;0.80;;;;;;;16.55;100.00;100674.66;4992699;28;20604;-73
2021/08/20 04:54:16;;;;;;;1.00;1.00;;;;;;;16.48;100.00;100674.25;5045863;28;20203;-72
2021/08/20 04:57:00;;;;;;;1.17;1.15;;;;;;;16.50;100.00;100672.84;5033007;28;20233;-72
2021/08/20 04:59:28;;;;;;;0.80;0.80;;;;;;;16.57;100.00;100671.28;5029703;28;20271;-72
2021/08/20 05:02:01;;;;;;;0.77;0.73;;;;;;;16.43;100.00;100677.13;5013938;28;20299;-72
2021/08/20 05:04:27;;;;;;;1.45;1.27;;;;;;;16.45;100.00;100683.94;5000854;28;20206;-73
2021/08/20 05:06:53;;;;;;;0.65;0.65;;;;;;;16.42;100.00;100675.50;5066479;28;20294;-72
2021/08/20 05:09:21;;;;;;;1.52;1.50;;;;;;;16.55;100.00;100680.13;5049427;28;20186;-72
2021/08/20 05:11:46;;;;;;;1.35;1.00;;;;;;;16.44;100.00;100678.75;5032828;28;20223;-71
2021/08/20 05:14:12;;;;;;;1.48;0.95;;;;;;;16.47;100.00;100678.13;5013976;28;20217;-73
2021/08/20 05:16:37;;;;;;;1.60;1.50;;;;;;;16.46;100.00;100681.97;5029987;28;20715;-72
2021/08/20 05:19:03;;;;;;;1.05;0.80;;;;;;;16.50;100.00;100672.00;5025709;28;20172;-72
2021/08/20 05:21:28;;;;;;;0.90;0.55;;;;;;;16.49;100.00;100678.63;5016575;28;20230;-73
2021/08/20 05:23:54;;;;;;;1.65;1.35;;;;;;;16.46;100.00;100677.31;5013912;28;20208;-71
2021/08/20 05:26:19;;;;;;;1.13;1.13;;;;;;;16.45;100.00;100683.13;5013120;28;20216;-72
2021/08/20 05:28:47;;;;;;;1.30;1.30;;;;;;;16.40;100.00;100680.50;5033084;28;20649;-71
2021/08/20 05:31:13;;;;;;;0.47;0.47;;;;;;;16.33;100.00;100685.59;5016663;28;20227;-72
2021/08/20 05:33:43;;;;;;;0.77;0.77;;;;;;;16.43;100.00;100693.59;5014571;28;20258;-73
2021/08/20 05:36:09;;;;;;;0.30;0.30;;;;;;;16.44;100.00;100686.97;5004510;28;20207;-72
2021/08/20 05:38:37;;;;;;;1.30;1.30;;;;;;;16.41;100.00;100695.81;5032917;28;20183;-72
2021/08/20 05:41:03;;;;;;;1.77;1.25;;;;;;;16.45;100.00;100691.34;5016358;28;20251;-72
2021/08/20 05:43:31;;;;;;;1.80;0.73;;;;;;;16.48;100.00;100698.94;5013536;28;20211;-73
2021/08/20 05:45:59;;;;;;;0.40;0.40;;;;;;;16.57;100.00;100706.94;5029712;28;20300;-71
2021/08/20 05:48:27;;;;;;;1.75;0.73;;;;;;;16.49;100.00;100700.56;5032642;28;20183;-71
2021/08/20 05:50:53;;;;;;;0.95;0.95;;;;;;;16.40;100.00;100707.91;5016600;28;20593;-71
2021/08/20 05:53:18;;;;;;;0.47;0.47;;;;;;;16.41;100.00;100701.28;5032647;28;20207;-71
2021/08/20 05:55:44;;;;;;;1.55;0.93;;;;;;;16.45;100.00;100716.03;5016268;28;20243;-72
2021/08/20 05:58:11;;;;;;;0.77;0.50;;;;;;;16.41;100.00;100706.78;5066000;28;20198;-72
2021/08/20 06:00:37;;;;;;;0.57;0.32;;;;;;;16.35;100.00;100711.56;5034121;28;20216;-71
2021/08/20 06:03:07;;;;;;;0.70;0.70;;;;;;;16.39;100.00;100714.50;5033647;28;20267;-71
2021/08/20 06:05:34;;;;;;;0.37;0.37;;;;;;;16.30;100.00;100714.44;5049390;28;20219;-72
2021/08/20 06:08:01;;;;;;;0.27;0.27;;;;;;;16.42;100.00;100717.44;5016496;28;20843;-72
2021/08/20 06:10:27;;;;;;;0.75;0.47;;;;;;;16.36;100.00;100715.94;5032585;28;20661;-71
2021/08/20 06:12:52;;;;;;;0.57;0.57;;;;;;;16.17;100.00;100719.88;5017174;28;20218;-71
2021/08/20 06:15:18;;;;;;;3.30;0.75;;;;;;;16.10;100.00;100716.78;5012961;28;20637;-73
2021/08/20 06:17:46;;;;;;;0.35;0.35;;;;;;;16.27;100.00;100727.94;5029929;28;20282;-72
2021/08/20 06:20:14;;;;;;;0.20;0.20;;;;;;;16.41;100.00;100724.06;5017155;28;20223;-71
2021/08/20 06:22:39;;;;;;;0.50;0.50;;;;;;;16.28;100.00;100724.91;5032776;28;20204;-72
2021/08/20 06:25:08;;;;;;;1.20;0.60;;;;;;;16.34;100.00;100728.34;5033128;28;20195;-73
2021/08/20 06:27:36;;;;;;;1.50;0.30;;;;;;;16.21;100.00;100735.47;4981554;28;20220;-72
2021/08/20 06:30:04;;;;;;;0.40;0.40;;;;;;;16.18;100.00;100729.78;5012601;28;20176;-72
2021/08/20 06:32:29;;;;;;;0.38;0.38;;;;;;;16.29;100.00;100734.72;5030639;28;20704;-71
2021/08/20 06:34:55;;;;;;;0.35;0.35;;;;;;;16.30;100.00;100738.28;5009837;28;20670;-72
2021/08/20 06:37:23;;;;;;;0.90;0.90;;;;;;;16.41;100.00;100736.94;4976987;28;20232;-71
2021/08/20 06:39:49;;;;;;;0.20;0.20;;;;;;;16.25;100.00;100746.63;5000658;28;20172;-72
2021/08/20 06:42:15;;;;;;;1.25;1.15;;;;;;;16.51;100.00;100744.97;5012842;28;20220;-72
2021/08/20 06:44:43;;;;;;;0.30;0.30;;;;;;;16.21;100.00;100745.63;4997598;28;20211;-71
2021/08/20 06:47:13;;;;;;;0.10;0.10;;;;;;;16.16;100.00;100747.63;5014849;28;20220;-71
2021/08/20 06:49:38;;;;;;;0.20;0.20;;;;;;;16.17;100.00;100750.88;5016421;28;20311;-71
2021/08/20 06:52:04;;;;;;;0.20;0.20;;;;;;;16.10;100.00;100744.19;5049146;28;20227;-72
2021/08/20 06:54:30;;;;;;;0.20;0.20;;;;;;;16.24;100.00;100750.47;5022123;28;20207;-71
2021/08/20 06:57:02;;;;;;;0.25;0.25;;;;;;;16.07;100.00;100744.78;5055494;28;20253;-72
2021/08/20 06:59:30;;;;;;;0.45;0.32;;;;;;;15.98;100.00;100760.31;5054739;28;20656;-73
2021/08/20 07:01:56;;;;;;;0.22;0.22;;;;;;;16.11;100.00;100767.72;5037366;28;20230;-72
2021/08/20 07:04:21;;;;;;;0.30;0.30;;;;;;;16.15;100.00;100762.44;5038147;28;20204;-73
2021/08/20 07:06:47;;;;;;;0.37;0.37;;;;;;;16.10;100.00;100763.38;5021621;28;20276;-74
2021/08/20 07:09:15;;;;;;;0.38;0.38;;;;;;;16.06;100.00;100773.31;5037156;28;20190;-73
2021/08/20 07:11:41;;;;;;;0.30;0.30;;;;;;;16.29;100.00;100772.31;5053463;28;20235;-72
2021/08/20 07:14:09;;;;;;;0.63;0.63;;;;;;;16.07;100.00;100776.88;5055536;28;20210;-72
2021/08/20 07:16:35;;;;;;;1.10;1.00;;;;;;;16.03;100.00;100770.38;5037851;28;20282;-73
2021/08/20 07:19:00;;;;;;;0.77;0.77;;;;;;;15.97;100.00;100780.63;5071038;28;20188;-73
2021/08/20 07:21:26;;;;;;;0.70;0.70;;;;;;;16.12;100.00;100774.84;5036119;28;20299;-73
2021/08/20 07:23:54;;;;;;;0.70;0.70;;;;;;;16.15;100.00;100774.22;5020040;28;20199;-73
2021/08/20 07:26:24;;;;;;;0.40;0.40;;;;;;;16.26;100.00;100772.91;5016148;28;20274;-74
2021/08/20 07:28:50;;;;;;;0.80;0.65;;;;;;;16.38;100.00;100767.72;5049769;28;20220;-73
2021/08/20 07:31:20;;;;;;;1.65;1.38;;;;;;;16.56;100.00;100762.91;5019486;28;20304;-72
2021/08/20 07:33:46;;;;;;;0.47;0.47;;;;;;;16.40;100.00;100770.97;5021102;28;20207;-72
2021/08/20 07:36:14;;;;;;;0.88;0.88;;;;;;;16.33;100.00;100782.34;5019288;28;20226;-72
2021/08/20 07:38:39;;;;;;;0.28;0.28;;;;;;;16.48;100.00;100789.44;5019227;28;20187;-73
2021/08/20 07:41:05;;;;;;;0.47;0.47;;;;;;;16.43;100.00;100775.84;5034730;28;20251;-75
2021/08/20 07:43:31;;;;;;;0.50;0.50;;;;;;;16.53;100.00;100787.41;5052294;28;20227;-75
2021/08/20 07:45:56;;;;;;;0.57;0.57;;;;;;;16.55;100.00;100789.84;5031466;28;20759;-72
2021/08/20 07:48:22;;;;;;;0.35;0.35;;;;;;;16.59;100.00;100789.72;5051473;28;20183;-75
2021/08/20 07:50:48;;;;;;;0.82;0.82;;;;;;;16.55;100.00;100795.31;5034995;28;20302;-74
2021/08/20 07:53:21;;;;;;;1.73;1.55;;;;;;;16.68;100.00;100779.66;5035492;28;20572;-74
2021/08/20 07:55:47;;;;;;;1.05;0.95;;;;;;;16.74;100.00;100783.91;5031349;28;20238;-74
2021/08/20 07:58:12;;;;;;;1.05;1.05;;;;;;;16.99;100.00;100791.53;5014808;28;20275;-74
2021/08/20 08:00:41;;;;;;;1.50;1.40;;;;;;;16.86;100.00;100789.66;5034016;28;20212;-73
2021/08/20 08:03:09;;;;;;;1.65;1.30;;;;;;;16.94;100.00;100788.94;5035036;28;20239;-74
2021/08/20 08:05:34;;;;;;;1.45;1.35;;;;;;;16.81;100.00;100789.78;5034372;28;20207;-74
2021/08/20 08:08:00;;;;;;;0.55;0.55;;;;;;;17.03;100.00;100787.88;5017633;28;20565;-74
2021/08/20 08:10:26;;;;;;;0.45;0.45;;;;;;;16.96;100.00;100794.91;5034202;28;20242;-74
2021/08/20 08:12:56;;;;;;;1.08;1.08;;;;;;;17.20;100.00;100795.47;5018188;28;20215;-74
2021/08/20 08:15:21;;;;;;;1.10;0.95;;;;;;;17.34;100.00;100800.56;5051018;28;20194;-73
2021/08/20 08:17:50;;;;;;;1.58;1.48;;;;;;;17.33;100.00;100802.81;5014292;28;20275;-72
2021/08/20 08:20:16;;;;;;;1.00;1.00;;;;;;;17.27;100.00;100804.88;5014231;28;20252;-73
2021/08/20 08:22:44;;;;;;;1.67;1.58;;;;;;;17.05;100.00;100812.25;5018452;28;20199;-75
2021/08/20 08:25:12;;;;;;;0.95;0.85;;;;;;;17.21;100.00;100819.03;5017779;28;20199;-74
2021/08/20 08:27:49;;;;;;;2.13;1.50;;;;;;;17.49;100.00;100819.41;5030874;28;20274;-73
2021/08/20 08:30:20;;;;;;;0.73;0.70;;;;;;;17.41;100.00;100819.34;5030197;28;20208;-74
2021/08/20 08:32:53;;;;;;;1.27;1.00;;;;;;;17.52;100.00;100816.03;5065142;28;20223;-73
2021/08/20 08:35:21;;;;;;;0.95;0.95;;;;;;;17.52;100.00;100818.75;5035524;28;20190;-73
2021/08/20 08:37:51;;;;;;;2.17;2.08;;;;;;;17.68;100.00;100817.25;5014396;28;20203;-76
2021/08/20 08:40:17;;;;;;;1.17;1.17;;;;;;;17.88;100.00;100822.22;5030411;28;20242;-72
2021/08/20 08:42:43;;;;;;;1.05;1.05;;;;;;;17.91;100.00;100824.31;5051535;28;20200;-75
2021/08/20 08:45:08;;;;;;;1.80;1.70;;;;;;;18.31;100.00;100821.28;5018303;28;20190;-73
2021/08/20 08:47:37;;;;;;;2.80;1.75;;;;;;;18.30;100.00;100828.75;5067676;28;20179;-73
2021/08/20 08:50:04;;;;;;;0.85;0.85;;;;;;;18.65;100.00;100827.72;5034003;28;20625;-75
2021/08/20 08:52:33;;;;;;;0.70;0.70;;;;;;;18.67;100.00;100828.19;5034440;28;20286;-73
2021/08/20 08:55:07;;;;;;;1.40;1.30;;;;;;;18.72;100.00;100817.03;5017917;28;20192;-72
2021/08/20 08:57:33;;;;;;;1.83;1.55;;;;;;;18.58;100.00;100821.84;5034548;28;20213;-71
2021/08/20 08:59:58;;;;;;;22.05;19.38;;;;;;;18.84;100.00;100814.44;5033528;28;20194;-71
2021/08/20 09:02:29;;;;;;;21.88;19.58;;;;;;;19.12;100.00;100816.59;5031251;28;20285;-75
2021/08/20 09:04:59;;;;;;;22.05;19.67;;;;;;;19.22;100.00;100819.84;5032194;28;20180;-75
2021/08/20 09:07:27;;;;;;;22.60;19.48;;;;;;;18.85;100.00;100821.59;5018024;28;20307;-74
2021/08/20 09:10:16;;;;;;;21.50;19.20;;;;;;;19.14;100.00;100826.19;5017931;28;20657;-73
2021/08/20 09:12:56;;;;;;;19.38;17.52;;;;;;;19.41;100.00;100818.38;5019594;28;20273;-74
2021/08/20 09:15:23;;;;;;;20.05;18.05;;;;;;;19.56;100.00;100819.78;5025638;28;20184;-76
2021/08/20 09:17:53;;;;;;;20.98;18.35;;;;;;;19.70;100.00;100824.78;5054910;28;20192;-74
2021/08/20 09:20:25;;;;;;;18.15;16.23;;;;;;;19.11;100.00;100821.31;5021362;28;20189;-77
2021/08/20 09:22:52;;;;;;;17.92;16.13;;;;;;;19.20;100.00;100830.38;5033286;28;20622;-74
2021/08/20 09:25:45;;;;;;;17.38;15.57;;;;;;;18.91;100.00;100832.91;5072954;28;20538;-76
2021/08/20 09:28:35;;;;;;;17.52;15.77;;;;;;;18.61;100.00;100835.00;5045205;28;20188;-78
2021/08/20 09:31:11;;;;;;;17.42;15.63;;;;;;;18.90;100.00;100836.81;5072054;28;20258;-81
2021/08/20 09:33:43;;;;;;;15.55;13.95;;;;;;;18.78;100.00;100832.28;5056080;28;20218;-76
2021/08/20 09:36:10;;;;;;;15.65;13.98;;;;;;;18.67;100.00;100839.22;5035748;28;20234;-74
2021/08/20 09:38:39;;;;;;;14.50;13.00;;;;;;;18.60;100.00;100841.63;5014415;28;20593;-74
2021/08/20 09:41:08;;;;;;;14.95;13.43;;;;;;;18.53;100.00;100852.28;5035937;28;20219;-75
2021/08/20 09:43:38;;;;;;;15.48;13.90;;;;;;;18.49;100.00;100845.78;5028866;28;20199;-74
2021/08/20 09:46:15;;;;;;;15.48;13.82;;;;;;;18.49;100.00;100848.53;5024153;28;20220;-76
2021/08/20 09:48:54;;;;;;;18.92;15.20;;;;;;;18.56;100.00;100852.44;5039575;28;20210;-79
2021/08/20 09:51:38;;;;;;;17.52;15.73;;;;;;;18.70;100.00;100846.81;5024829;28;20230;-76
2021/08/20 09:54:26;;;;;;;17.27;15.63;;;;;;;18.80;100.00;100847.31;5037699;28;20222;-80
2021/08/20 09:56:52;;;;;;;17.83;15.95;;;;;;;19.01;100.00;100848.34;5024145;28;20231;-76
2021/08/20 09:59:23;;;;;;;17.67;15.90;;;;;;;18.93;100.00;100849.91;5038730;28;20188;-77
2021/08/20 10:01:49;;;;;;;16.08;14.48;;;;;;;19.29;100.00;100842.22;5031319;28;20765;-78
2021/08/20 10:04:16;;;;;;;17.17;15.38;;;;;;;19.17;100.00;100850.28;5048056;28;20199;-77
2021/08/20 10:06:45;;;;;;;17.10;15.23;;;;;;;19.37;100.00;100852.41;5028777;28;20215;-77
2021/08/20 10:09:18;;;;;;;17.50;15.68;;;;;;;18.91;100.00;100838.41;5060107;28;20183;-78
2021/08/20 10:11:47;;;;;;;18.77;16.67;;;;;;;18.87;100.00;100844.09;5019853;28;20656;-77
2021/08/20 10:14:13;;;;;;;20.80;16.67;;;;;;;18.79;100.00;100850.38;5022409;28;20582;-77
2021/08/20 10:16:42;;;;;;;18.17;16.20;;;;;;;18.89;100.00;100848.94;5041222;28;20590;-78
2021/08/20 10:19:09;;;;;;;19.70;17.73;;;;;;;18.74;100.00;100848.59;5031410;28;20180;-78
2021/08/20 10:21:38;;;;;;;19.05;17.10;;;;;;;19.06;100.00;100850.94;5046644;28;20216;-78
2021/08/20 10:24:04;;;;;;;18.17;16.25;;;;;;;19.09;100.00;100842.84;5034202;28;20214;-80
2021/08/20 10:26:30;;;;;;;17.50;15.70;;;;;;;19.10;100.00;100841.72;5048781;28;20278;-81
2021/08/20 10:28:59;;;;;;;16.73;15.13;;;;;;;19.52;100.00;100840.88;5029891;28;20192;-79
2021/08/20 10:31:24;;;;;;;14.68;13.27;;;;;;;19.65;100.00;100842.66;5037714;28;20254;-77
2021/08/20 10:33:50;;;;;;;14.73;13.23;;;;;;;19.78;100.00;100846.03;5079282;28;20206;-78
2021/08/20 10:36:16;;;;;;;15.07;12.52;;;;;;;20.09;100.00;100852.13;5070127;28;20227;-78
2021/08/20 10:38:50;;;;;;;14.35;12.35;;;;;;;20.42;100.00;100858.66;5045562;28;20203;-79
2021/08/20 10:41:20;;;;;;;13.93;12.52;;;;;;;20.17;100.00;100859.59;5025936;28;20224;-75
2021/08/20 10:43:47;;;;;;;13.30;11.93;;;;;;;20.15;100.00;100859.09;5028742;28;20242;-78
2021/08/20 10:46:33;;;;;;;12.27;10.98;;;;;;;20.47;100.00;100862.03;5073269;28;20207;-78
2021/08/20 10:49:12;;;;;;;12.88;11.40;;;;;;;20.44;100.00;100852.47;5046190;28;20191;-80
2021/08/20 10:51:52;;;;;;;11.90;10.68;;;;;;;20.69;100.00;100859.03;5069657;28;20231;-80
2021/08/20 10:54:42;;;;;;;13.82;11.40;;;;;;;20.67;100.00;100851.06;5062088;28;20215;-76
2021/08/20 10:57:38;;;;;;;12.57;11.38;;;;;;;20.32;100.00;100856.28;5048959;28;20238;-78
2021/08/20 11:00:07;;;;;;;11.18;10.07;;;;;;;20.82;100.00;100857.97;5038107;28;20196;-79
2021/08/20 11:02:38;;;;;;;12.57;9.98;;;;;;;20.98;100.00;100865.34;5052793;28;20211;-80
2021/08/20 11:05:16;;;;;;;10.13;9.20;;;;;;;20.91;100.00;100859.53;5041802;28;20180;-77
2021/08/20 11:07:50;;;;;;;9.98;9.02;;;;;;;20.76;100.00;100860.13;5044286;28;20242;-79
2021/08/20 11:10:17;;;;;;;9.80;8.80;;;;;;;20.39;100.00;100862.91;5023623;28;20600;-78
2021/08/20 11:12:54;;;;;;;9.70;8.73;;;;;;;20.24;100.00;100862.66;5023747;28;20218;-80
2021/08/20 11:15:28;;;;;;;10.63;8.45;;;;;;;20.23;100.00;100866.53;5040187;28;20245;-77
2021/08/20 11:18:05;;;;;;;10.27;9.25;;;;;;;20.20;100.00;100875.47;5040959;28;20188;-77
2021/08/20 11:20:46;;;;;;;9.07;8.18;;;;;;;19.82;100.00;100871.03;5056881;28;20214;-77
2021/08/20 11:23:12;;;;;;;10.20;9.20;;;;;;;19.78;100.00;100862.56;5060477;28;20202;-77
2021/08/20 11:25:41;;;;;;;10.77;9.77;;;;;;;20.05;100.00;100859.44;5058990;28;20306;-76
2021/08/20 11:28:25;;;;;;;9.43;8.40;;;;;;;20.69;100.00;100859.84;5042723;28;20188;-77